Forside
METAR-TAF:

METAR-TAF

Lufthavne :

Narita International Airport

Tokyo Narita, Japan

Breddekreds: 35-46N, længdekreds: 140-23E, højde: 41 m

Aktuelle vejr

Denne rapport blev lavet for 34 minutter siden, kl. 02:06 UTC
Vind 16 kt fra sydsydvest med vindstød på up til 26 kt, varierende mellem syd og vest
Temperatur 28°C
Fugtighed 74%
Tryk 1004 hPa
Sigt 10 km eller mere
Nogle få skyer i en højde af 2500 ft
Brudte skyer i en højde af 15000 ft

METAR: RJAA 040206Z 21016G26KT 170V260 9999 FEW025 BKN150 28/23 Q1004 RMK 2CU025 6AC150 A2967

Tid: 11:40 (02:40 UTC)

Vejrudsigter

Denne rapport blev lavet for 38 minutter siden, kl. 02:02 UTC
Foreløbig gælder fra 04 på 02 UTC til 05 på 06 UTC
Vind 18 kt fra sydvest med vindstød på up til 28 kt
Sigt 10 km eller mere
Nogle få skyer i en højde af 1500 ft
Brudte skyer i en højde af 2500 ft
Midlertidig
fra 04 på 02 UTC til 04 på 08 UTC
Vind 24 kt fra sydvest med vindstød på up til 38 kt

TAF: RJAA 040202Z 0402/0506 22018G28KT 9999 FEW015 BKN025 TEMPO 0402/0408 22024G38KT

Vejrobservationer og prognoser fra mere end 4000 lufthavne (METAR og TAF).

De gule og røde prikker repræsenterer de meteorologiske stationer.

Flyt musen over at se navnet på stationen.

Så klik over at se vejr observationer og prognoser.

At skifte det kort: Klik på de grønne knapper med et sort kors for at zoome ind; på den grønne knap med en bindestreg for at zoome ud; eller på de grønne pile for tilstødende kort.


METAR-TAF: